Time;durP1;ratioP1;P1;durP2;ratioP2;P2;SDS_P1;SDS_P2;PMS_P1;PMS_P2;Temp;Humidity;BMP_temperature;BMP_pressure;BME280_temperature;BME280_humidity;BME280_pressure;Samples;Min_cycle;Max_cycle;Signal;HPM_P1;HPM_P2
2022/07/05 00:00:02;;;;;;;7.22;3.88;;;;;;;;;;5092217;28;20051;-64
2022/07/05 00:02:28;;;;;;;4.78;3.10;;;;;;;;;;5084769;28;20048;-66
2022/07/05 00:04:54;;;;;;;7.65;2.92;;;;;;;;;;5084692;28;20048;-64
2022/07/05 00:07:21;;;;;;;5.65;3.20;;;;;;;;;;5117833;28;20071;-65
2022/07/05 00:09:52;;;;;;;7.75;3.20;;;;;;;;;;5093878;28;20131;-65
2022/07/05 00:12:18;;;;;;;5.95;3.05;;;;;;;;;;5085023;28;20096;-64
2022/07/05 00:14:45;;;;;;;5.60;3.40;;;;;;;;;;5083688;28;20113;-64
2022/07/05 00:17:11;;;;;;;4.85;2.72;;;;;;;;;;5097306;28;20052;-65
2022/07/05 00:19:38;;;;;;;7.50;3.80;;;;;;;;;;5085679;28;20128;-64
2022/07/05 00:22:04;;;;;;;9.07;3.63;;;;;;;;;;5065005;28;20130;-66
2022/07/05 00:24:30;;;;;;;6.30;3.08;;;;;;;;;;5065026;28;20045;-64
2022/07/05 00:26:57;;;;;;;10.05;3.78;;;;;;;;;;5068778;28;20211;-65
2022/07/05 00:29:23;;;;;;;4.90;3.58;;;;;;;;;;5068133;28;20052;-65
2022/07/05 00:31:49;;;;;;;7.43;3.72;;;;;;;;;;5079587;28;20068;-64
2022/07/05 00:34:15;;;;;;;6.13;3.45;;;;;;;;;;5064804;28;20092;-65
2022/07/05 00:36:42;;;;;;;9.85;4.18;;;;;;;;;;5072536;28;20060;-64
2022/07/05 00:39:08;;;;;;;6.20;3.38;;;;;;;;;;5080408;28;20071;-64
2022/07/05 00:41:34;;;;;;;6.70;3.20;;;;;;;;;;5064677;28;20049;-64
2022/07/05 00:44:05;;;;;;;8.25;2.97;;;;;;;;;;5064633;28;20048;-64
2022/07/05 00:46:32;;;;;;;11.55;4.32;;;;;;;;;;5069263;28;20051;-64
2022/07/05 00:48:59;;;;;;;8.90;3.77;;;;;;;;;;5078738;28;20052;-64
2022/07/05 00:51:26;;;;;;;11.13;3.53;;;;;;;;;;5064491;28;20043;-64
2022/07/05 00:53:52;;;;;;;7.75;3.78;;;;;;;;;;5074421;28;20048;-64
2022/07/05 00:56:20;;;;;;;5.63;3.60;;;;;;;;;;5068469;28;20049;-64
2022/07/05 00:58:46;;;;;;;10.50;3.25;;;;;;;;;;5086815;28;20048;-64
2022/07/05 01:01:12;;;;;;;6.43;3.65;;;;;;;;;;5078913;28;20508;-64
2022/07/05 01:03:38;;;;;;;5.68;3.92;;;;;;;;;;5083512;28;20087;-64
2022/07/05 01:06:08;;;;;;;5.32;3.30;;;;;;;;;;5084641;28;20043;-65
2022/07/05 01:08:36;;;;;;;5.28;3.95;;;;;;;;;;5083569;28;20040;-64
2022/07/05 01:11:02;;;;;;;8.68;3.72;;;;;;;;;;5069488;28;20520;-64
2022/07/05 01:13:28;;;;;;;6.50;4.05;;;;;;;;;;5067139;28;20068;-64
2022/07/05 01:15:55;;;;;;;5.53;3.45;;;;;;;;;;5064111;28;20131;-64
2022/07/05 01:18:21;;;;;;;10.30;4.37;;;;;;;;;;5086167;28;20049;-65
2022/07/05 01:20:51;;;;;;;6.20;4.10;;;;;;;;;;5064262;28;20037;-65
2022/07/05 01:23:21;;;;;;;8.30;3.90;;;;;;;;;;5064062;28;20136;-64
2022/07/05 01:25:47;;;;;;;4.10;3.28;;;;;;;;;;5064336;28;20049;-66
2022/07/05 01:28:14;;;;;;;5.47;3.55;;;;;;;;;;5086016;28;20044;-64
2022/07/05 01:30:41;;;;;;;6.72;3.50;;;;;;;;;;5068311;28;20044;-65
2022/07/05 01:33:07;;;;;;;6.55;3.75;;;;;;;;;;5067895;28;20044;-65
2022/07/05 01:35:34;;;;;;;6.28;4.15;;;;;;;;;;5098142;28;20128;-66
2022/07/05 01:38:00;;;;;;;10.75;5.40;;;;;;;;;;5084590;28;20051;-65
2022/07/05 01:40:26;;;;;;;6.88;4.15;;;;;;;;;;5098524;28;20068;-65
2022/07/05 01:42:53;;;;;;;8.50;3.67;;;;;;;;;;5067815;28;20055;-65
2022/07/05 01:48:06;;;;;;;5.88;3.80;;;;;;;;;;5095782;28;20077;-65
2022/07/05 01:50:35;;;;;;;8.55;4.13;;;;;;;;;;5075895;28;20049;-65
2022/07/05 01:53:03;;;;;;;6.70;4.28;;;;;;;;;;5076299;28;20439;-65
2022/07/05 01:55:30;;;;;;;8.52;4.40;;;;;;;;;;5072963;28;20048;-65
2022/07/05 01:57:56;;;;;;;7.28;4.82;;;;;;;;;;5069552;28;20124;-65
2022/07/05 02:00:22;;;;;;;13.82;5.32;;;;;;;;;;5067761;28;20060;-65
2022/07/05 02:02:48;;;;;;;8.00;4.38;;;;;;;;;;5066981;28;20076;-65
2022/07/05 02:05:14;;;;;;;5.20;4.38;;;;;;;;;;5067400;28;20504;-65
2022/07/05 02:07:47;;;;;;;5.95;4.50;;;;;;;;;;5075159;28;20044;-65
2022/07/05 02:10:13;;;;;;;7.93;5.25;;;;;;;;;;5078538;28;20078;-65
2022/07/05 02:12:39;;;;;;;6.57;5.43;;;;;;;;;;5067429;28;20056;-65
2022/07/05 02:15:06;;;;;;;20.17;5.10;;;;;;;;;;5067442;28;20096;-65
2022/07/05 02:17:32;;;;;;;6.50;5.18;;;;;;;;;;5083266;28;20048;-65
2022/07/05 02:19:58;;;;;;;8.10;4.93;;;;;;;;;;5082877;28;20048;-65
2022/07/05 02:22:24;;;;;;;7.95;4.90;;;;;;;;;;5067156;28;20060;-65
2022/07/05 02:24:50;;;;;;;7.57;5.22;;;;;;;;;;5067256;28;20459;-65
2022/07/05 02:27:17;;;;;;;7.90;5.57;;;;;;;;;;5070334;28;20047;-65
2022/07/05 02:29:43;;;;;;;6.45;5.25;;;;;;;;;;5077679;28;20084;-65
2022/07/05 02:32:09;;;;;;;7.50;5.72;;;;;;;;;;5078859;28;20059;-65
2022/07/05 02:34:35;;;;;;;11.15;5.70;;;;;;;;;;5090897;28;20048;-65
2022/07/05 02:37:01;;;;;;;7.82;5.85;;;;;;;;;;5067144;28;20044;-65
2022/07/05 02:39:27;;;;;;;9.35;6.40;;;;;;;;;;5081236;28;20174;-65
2022/07/05 02:41:53;;;;;;;10.55;5.90;;;;;;;;;;5066183;28;20041;-65
2022/07/05 02:44:19;;;;;;;7.53;6.22;;;;;;;;;;5082482;28;20053;-66
2022/07/05 02:46:45;;;;;;;7.95;5.55;;;;;;;;;;5065988;28;20676;-65
2022/07/05 02:49:11;;;;;;;9.15;6.22;;;;;;;;;;5085083;28;20055;-65
2022/07/05 02:51:38;;;;;;;9.73;5.80;;;;;;;;;;5066684;28;20102;-65
2022/07/05 02:54:04;;;;;;;11.10;5.90;;;;;;;;;;5066711;28;20071;-65
2022/07/05 02:56:30;;;;;;;9.20;6.80;;;;;;;;;;5078668;28;20569;-65
2022/07/05 02:58:56;;;;;;;12.88;6.72;;;;;;;;;;5091300;28;20115;-65
2022/07/05 03:01:22;;;;;;;10.27;6.47;;;;;;;;;;5076518;28;20056;-65
2022/07/05 03:03:48;;;;;;;10.27;6.70;;;;;;;;;;5082327;28;20075;-65
2022/07/05 03:06:14;;;;;;;13.23;7.57;;;;;;;;;;5066497;28;20095;-65
2022/07/05 03:08:41;;;;;;;11.52;7.45;;;;;;;;;;5084543;28;20096;-66
2022/07/05 03:11:07;;;;;;;10.40;6.90;;;;;;;;;;5069479;28;20105;-65
2022/07/05 03:13:33;;;;;;;13.10;7.93;;;;;;;;;;5066167;28;20131;-65
2022/07/05 03:15:59;;;;;;;11.90;6.55;;;;;;;;;;5065841;28;20108;-65
2022/07/05 03:18:25;;;;;;;11.00;6.57;;;;;;;;;;5091079;28;20046;-65
2022/07/05 03:20:51;;;;;;;12.60;7.03;;;;;;;;;;5073675;28;20048;-65
2022/07/05 03:23:17;;;;;;;7.68;6.82;;;;;;;;;;5069671;28;20055;-65
2022/07/05 03:25:44;;;;;;;10.75;7.15;;;;;;;;;;5086242;28;20055;-65
2022/07/05 03:28:10;;;;;;;7.88;6.60;;;;;;;;;;5108980;28;20048;-66
2022/07/05 03:30:36;;;;;;;12.98;7.53;;;;;;;;;;5066004;28;20056;-65
2022/07/05 03:33:02;;;;;;;13.55;7.47;;;;;;;;;;5080142;28;20127;-65
2022/07/05 03:35:28;;;;;;;8.52;6.95;;;;;;;;;;5088696;28;20044;-65
2022/07/05 03:37:54;;;;;;;9.60;7.55;;;;;;;;;;5079855;28;20073;-66
2022/07/05 03:40:20;;;;;;;7.85;6.93;;;;;;;;;;5065824;28;20037;-65
2022/07/05 03:42:46;;;;;;;8.85;7.13;;;;;;;;;;5065891;28;20045;-65
2022/07/05 03:45:12;;;;;;;13.23;7.78;;;;;;;;;;5070518;28;20045;-65
2022/07/05 03:47:39;;;;;;;8.80;7.30;;;;;;;;;;5085692;28;20040;-65
2022/07/05 03:50:05;;;;;;;10.60;7.72;;;;;;;;;;5065701;28;20072;-66
2022/07/05 03:52:31;;;;;;;8.35;7.45;;;;;;;;;;5072659;28;20277;-65
2022/07/05 03:54:57;;;;;;;10.02;7.20;;;;;;;;;;5070740;28;20052;-65
2022/07/05 03:57:23;;;;;;;9.52;7.07;;;;;;;;;;5088107;28;20376;-65
2022/07/05 03:59:49;;;;;;;15.68;7.15;;;;;;;;;;5103466;28;20096;-65
2022/07/05 04:02:15;;;;;;;11.63;7.25;;;;;;;;;;5084954;28;20048;-66
2022/07/05 04:04:42;;;;;;;8.18;6.88;;;;;;;;;;5088443;28;20096;-66
2022/07/05 04:07:08;;;;;;;9.77;7.05;;;;;;;;;;5096771;28;20055;-65
2022/07/05 04:09:34;;;;;;;9.00;6.40;;;;;;;;;;5083062;28;20170;-65
2022/07/05 04:12:00;;;;;;;7.80;6.10;;;;;;;;;;5086279;28;20048;-65
2022/07/05 04:14:26;;;;;;;11.13;7.18;;;;;;;;;;5088102;28;20053;-65
2022/07/05 04:16:52;;;;;;;7.80;6.57;;;;;;;;;;5081113;28;20127;-65
2022/07/05 04:19:18;;;;;;;8.30;6.40;;;;;;;;;;5085084;28;20051;-65
2022/07/05 04:21:44;;;;;;;12.93;6.53;;;;;;;;;;5090503;28;20051;-65
2022/07/05 04:24:11;;;;;;;13.25;6.57;;;;;;;;;;5081566;28;20049;-65
2022/07/05 04:26:37;;;;;;;10.68;5.90;;;;;;;;;;5084891;28;20044;-65
2022/07/05 04:29:03;;;;;;;10.98;5.97;;;;;;;;;;5087706;28;20044;-65
2022/07/05 04:31:29;;;;;;;10.00;5.97;;;;;;;;;;5095442;28;20052;-66
2022/07/05 04:33:55;;;;;;;10.35;5.93;;;;;;;;;;5083741;28;20456;-65
2022/07/05 04:36:21;;;;;;;6.80;5.78;;;;;;;;;;5089467;28;20456;-65
2022/07/05 04:38:47;;;;;;;13.65;5.93;;;;;;;;;;5084590;28;20049;-65
2022/07/05 04:41:13;;;;;;;8.50;6.18;;;;;;;;;;5085974;28;20048;-65
2022/07/05 04:43:39;;;;;;;7.95;5.22;;;;;;;;;;5082764;28;20073;-65
2022/07/05 04:46:05;;;;;;;9.30;5.40;;;;;;;;;;5084837;28;20044;-65
2022/07/05 04:48:31;;;;;;;8.25;5.30;;;;;;;;;;5086203;28;20047;-65
2022/07/05 04:50:57;;;;;;;5.47;4.85;;;;;;;;;;5081756;28;20041;-65
2022/07/05 04:53:23;;;;;;;7.90;4.35;;;;;;;;;;5089702;28;20078;-65
2022/07/05 04:55:50;;;;;;;7.85;4.68;;;;;;;;;;5083361;28;20050;-65
2022/07/05 04:58:16;;;;;;;6.60;4.70;;;;;;;;;;5084618;28;20032;-65
2022/07/05 05:00:42;;;;;;;3.92;3.53;;;;;;;;;;5099771;28;20048;-65
2022/07/05 05:03:07;;;;;;;9.32;4.45;;;13.50;99.90;;;;;;5085059;28;20047;-65
2022/07/05 05:05:33;;;;;;;7.32;4.25;;;13.80;99.90;;;;;;5084108;28;20076;-65
2022/07/05 05:07:59;;;;;;;12.68;4.60;;;14.10;99.90;;;;;;5099696;28;20047;-65
2022/07/05 05:10:24;;;;;;;4.65;3.80;;;13.90;99.90;;;;;;5073937;28;20041;-65
2022/07/05 05:12:50;;;;;;;7.30;4.30;;;13.80;99.90;;;;;;5070167;28;20127;-65
2022/07/05 05:15:16;;;;;;;5.65;3.65;;;14.10;99.90;;;;;;5073072;28;20084;-66
2022/07/05 05:17:43;;;;;;;5.72;3.60;;;14.20;99.90;;;;;;5069652;28;20048;-66
2022/07/05 05:20:17;;;;;;;8.32;3.72;;;14.30;99.90;;;;;;5077666;28;20049;-66
2022/07/05 05:22:43;;;;;;;7.40;3.53;;;14.20;99.90;;;;;;5075930;28;20067;-65
2022/07/05 05:25:10;;;;;;;8.68;4.28;;;14.40;99.90;;;;;;5076986;28;20037;-65
2022/07/05 05:27:40;;;;;;;4.37;3.63;;;;;;;;;;5076439;28;20072;-65
2022/07/05 05:30:07;;;;;;;3.85;3.35;;;;;;;;;;5084256;28;20068;-65
2022/07/05 05:32:33;;;;;;;6.65;3.05;;;;;;;;;;5079327;28;20071;-64
2022/07/05 05:34:59;;;;;;;5.82;2.97;;;;;;;;;;5081098;28;20053;-64
2022/07/05 05:37:25;;;;;;;6.28;3.22;;;;;;;;;;5063426;28;20048;-65
2022/07/05 05:39:51;;;;;;;8.23;3.40;;;;;;;;;;5077667;28;20067;-65
2022/07/05 05:42:17;;;;;;;5.57;2.80;;;;;;;;;;5083280;28;20320;-65
2022/07/05 05:44:43;;;;;;;6.57;3.35;;;;;;;;;;5083542;28;20080;-65
2022/07/05 05:47:09;;;;;;;21.88;3.78;;;;;;;;;;5082120;28;20051;-64
2022/07/05 05:49:35;;;;;;;8.73;3.33;;;;;;;;;;5079694;28;20055;-64
2022/07/05 05:52:01;;;;;;;6.68;3.00;;;;;;;;;;5081694;28;20078;-65
2022/07/05 05:54:27;;;;;;;13.32;3.13;;;;;;;;;;5077862;28;20037;-64
2022/07/05 05:56:53;;;;;;;7.30;3.53;;;;;;;;;;5077102;28;20079;-65
2022/07/05 05:59:19;;;;;;;6.90;2.60;;;;;;;;;;5069495;28;20461;-64
2022/07/05 06:01:45;;;;;;;4.13;2.72;;;;;;;;;;5078340;28;20057;-66
2022/07/05 06:04:12;;;;;;;10.05;2.60;;;;;;;;;;5082851;28;20083;-66
2022/07/05 06:06:38;;;;;;;10.77;2.92;;;;;;;;;;5082946;28;20040;-66
2022/07/05 06:09:04;;;;;;;7.38;2.35;;;;;;;;;;5084378;28;20040;-65
2022/07/05 06:11:30;;;;;;;3.95;2.70;;;;;;;;;;5082146;28;20059;-66
2022/07/05 06:13:56;;;;;;;3.75;2.10;;;;;;;;;;5077316;28;20068;-65
2022/07/05 06:16:22;;;;;;;4.97;2.40;;;;;;;;;;5081324;28;20186;-65
2022/07/05 06:18:48;;;;;;;2.25;1.48;;;;;;;;;;5084379;28;20054;-65
2022/07/05 06:21:14;;;;;;;4.43;1.65;;;;;;;;;;5085079;28;20516;-65
2022/07/05 06:23:41;;;;;;;5.53;1.20;;;;;;;;;;5085159;28;20040;-65
2022/07/05 06:26:07;;;;;;;5.75;1.52;;;;;;;;;;5086404;28;20072;-66
2022/07/05 06:28:33;;;;;;;4.55;1.20;;;;;;;;;;5083560;28;20084;-66
2022/07/05 06:30:59;;;;;;;6.10;1.55;;;;;;;;;;5093585;28;20050;-66
2022/07/05 06:33:25;;;;;;;14.20;1.92;;;;;;;;;;5088098;28;20458;-65
2022/07/05 06:35:51;;;;;;;6.65;1.65;;;;;;;;;;5077990;28;21275;-65
2022/07/05 06:38:18;;;;;;;16.67;2.20;;;;;;;;;;5082445;28;20401;-65
2022/07/05 06:40:44;;;;;;;13.73;1.85;;;;;;;;;;5077189;28;20124;-65
2022/07/05 06:43:11;;;;;;;3.70;1.00;;;;;;;;;;5086259;28;20075;-65
2022/07/05 06:45:37;;;;;;;6.50;1.20;;;;;;;;;;5083497;28;20042;-65
2022/07/05 06:48:05;;;;;;;6.10;1.30;;;;;;;;;;5086708;28;20123;-66
2022/07/05 06:50:32;;;;;;;4.35;1.05;;;;;;;;;;5085139;28;20099;-65
2022/07/05 06:52:59;;;;;;;3.00;1.60;;;;;;;;;;5079212;28;20048;-65
2022/07/05 06:55:25;;;;;;;2.53;0.93;;;;;;;;;;5085827;28;20036;-64
2022/07/05 06:58:08;;;;;;;3.50;0.90;;;;;;;;;;5090341;28;20047;-65
2022/07/05 07:00:35;;;;;;;3.42;0.95;;;;;;;;;;5088527;28;20052;-64
2022/07/05 07:03:01;;;;;;;8.50;1.20;;;;;;;;;;5093854;28;20091;-64
2022/07/05 07:05:27;;;;;;;5.22;1.00;;;;;;;;;;5086323;28;20131;-64
2022/07/05 07:10:38;;;;;;;3.72;0.93;;;;;;;;;;5081992;28;20063;-64
2022/07/05 07:13:05;;;;;;;2.33;0.68;;;;;;;;;;5073999;28;20056;-65
2022/07/05 07:15:33;;;;;;;3.78;0.80;;;;;;;;;;5070360;28;20070;-64
2022/07/05 07:17:59;;;;;;;5.78;1.00;;;;;;;;;;5075731;28;20037;-65
2022/07/05 07:20:25;;;;;;;3.47;0.75;;;;;;;;;;5065882;28;20041;-65
2022/07/05 07:22:52;;;;;;;3.65;0.80;;;;;;;;;;5066063;28;20039;-65
2022/07/05 07:25:20;;;;;;;2.60;0.70;;;;;;;;;;5066237;28;20047;-66
2022/07/05 07:27:47;;;;;;;1.83;0.90;;;;;;;;;;5091966;28;20813;-66
2022/07/05 07:30:13;;;;;;;4.30;1.02;;;;;;;;;;5090855;28;20044;-65
2022/07/05 07:32:39;;;;;;;1.97;0.77;;;;;;;;;;5071525;28;20488;-66
2022/07/05 07:35:06;;;;;;;3.00;0.70;;;;;;;;;;5089446;28;20040;-66
2022/07/05 07:37:32;;;;;;;4.00;0.85;;;;;;;;;;5090050;28;20040;-66
2022/07/05 07:40:00;;;;;;;4.57;1.02;;;;;;;;;;5085096;28;20099;-65
2022/07/05 07:42:27;;;;;;;3.58;1.10;;;;;;;;;;5086910;28;20044;-66
2022/07/05 07:44:53;;;;;;;2.65;1.13;;;;;;;;;;5081503;28;20078;-65
2022/07/05 07:47:20;;;;;;;6.80;0.98;;;;;;;;;;5090309;28;20051;-65
2022/07/05 07:49:46;;;;;;;2.50;0.85;;;;;;;;;;5077787;28;20128;-65
2022/07/05 07:52:12;;;;;;;8.00;1.90;;;;;;;;;;5088043;28;20120;-65
2022/07/05 07:54:38;;;;;;;5.13;0.93;;;;;;;;;;5085439;28;20082;-64
2022/07/05 07:57:05;;;;;;;8.00;1.52;;;;;;;;;;5087287;28;20110;-65
2022/07/05 07:59:31;;;;;;;3.85;0.98;;;;;;;;;;5085823;28;20605;-65
2022/07/05 08:01:57;;;;;;;3.47;1.13;;;;;;;;;;5089735;28;20074;-65
2022/07/05 08:04:23;;;;;;;5.70;0.80;;;;;;;;;;5092288;28;20048;-66
2022/07/05 08:06:49;;;;;;;9.45;1.20;;;;;;;;;;5085336;28;20072;-65
2022/07/05 08:09:16;;;;;;;3.42;1.20;;;;;;;;;;5084156;28;20070;-66
2022/07/05 08:11:42;;;;;;;5.72;1.20;;;;;;;;;;5080593;28;20060;-66
2022/07/05 08:14:08;;;;;;;5.40;1.30;;;;;;;;;;5087912;28;20052;-64
2022/07/05 08:16:35;;;;;;;5.97;1.05;;;;;;;;;;5077242;28;20040;-65
2022/07/05 08:21:47;;;;;;;3.67;0.98;;;;;;;;;;5065691;28;20484;-65
2022/07/05 08:24:14;;;;;;;3.65;1.10;;;;;;;;;;5072750;28;20474;-65
2022/07/05 08:26:40;;;;;;;2.67;0.90;;;;;;;;;;5072545;28;20051;-64
2022/07/05 08:29:08;;;;;;;5.43;1.10;;;;;;;;;;5094557;28;20048;-64
2022/07/05 08:31:35;;;;;;;5.60;1.60;;;;;;;;;;5070073;28;20597;-64
2022/07/05 08:34:01;;;;;;;4.32;0.80;;;;;;;;;;5075846;28;20048;-64
2022/07/05 08:36:28;;;;;;;10.70;1.15;;;;;;;;;;5065582;28;20126;-64
2022/07/05 08:38:54;;;;;;;7.85;1.10;;;;;;;;;;5088919;28;20079;-64
2022/07/05 08:41:21;;;;;;;7.18;0.95;;;;;;;;;;5064777;28;20045;-64
2022/07/05 08:43:48;;;;;;;5.10;1.15;;;;;;;;;;5064594;28;20045;-65
2022/07/05 08:46:15;;;;;;;1.50;0.70;;;;;;;;;;5080097;28;20044;-66
2022/07/05 08:48:45;;;;;;;3.20;0.75;;;;;;;;;;5091439;28;20104;-66
2022/07/05 08:51:16;;;;;;;2.53;0.90;;;;;;;;;;5080141;28;20078;-66
2022/07/05 08:53:43;;;;;;;6.22;0.85;;;;;;;;;;5079935;28;20102;-65
2022/07/05 08:56:10;;;;;;;12.65;1.25;;;;;;;;;;5073933;28;20036;-66
2022/07/05 08:58:36;;;;;;;3.50;1.03;;;;;;;;;;5069274;28;20092;-65
2022/07/05 09:01:03;;;;;;;1.38;0.70;;;;;;;;;;5064230;28;20323;-65
2022/07/05 09:03:33;;;;;;;5.85;1.20;;;;;;;;;;5063823;28;20064;-66
2022/07/05 09:06:00;;;;;;;2.08;0.85;;;;;;;;;;5064611;28;20049;-64
2022/07/05 09:08:27;;;;;;;4.10;1.08;;;;;;;;;;5098179;28;20048;-66
2022/07/05 09:10:53;;;;;;;5.13;1.02;;;;;;;;;;5070063;28;20120;-66
2022/07/05 09:13:19;;;;;;;7.60;0.90;;;;;;;;;;5072694;28;20060;-66
2022/07/05 09:15:46;;;;;;;6.18;1.00;;;;;;;;;;5085717;28;20562;-65
2022/07/05 09:18:12;;;;;;;9.63;1.17;;;;;;;;;;5084246;28;20051;-65
2022/07/05 09:20:38;;;;;;;2.88;0.60;;;;;;;;;;5084379;28;20045;-65
2022/07/05 09:23:04;;;;;;;5.00;0.85;;;;;;;;;;5084005;28;20134;-65
2022/07/05 09:25:31;;;;;;;2.92;0.80;;;;;;;;;;5091153;28;20062;-66
2022/07/05 09:28:01;;;;;;;6.45;0.93;;;;;;;;;;5088302;28;20100;-65
2022/07/05 09:30:30;;;;;;;7.63;0.80;;;;;;;;;;5084531;28;20083;-64
2022/07/05 09:33:10;;;;;;;2.88;0.98;;;;;;;;;;5083398;28;20104;-65
2022/07/05 09:35:43;;;;;;;4.53;1.08;;;;;;;;;;5090380;28;20044;-66
2022/07/05 09:38:19;;;;;;;3.38;1.17;;;;;;;;;;5088630;28;20062;-66
2022/07/05 09:40:47;;;;;;;1.92;0.80;;;;;;;;;;5081221;28;20055;-66
2022/07/05 09:43:14;;;;;;;2.58;0.65;;;;;;;;;;5078298;28;20060;-65
2022/07/05 09:45:50;;;;;;;9.07;1.00;;;;;;;;;;5080019;28;20044;-64
2022/07/05 09:48:16;;;;;;;3.97;1.02;;;;;;;;;;5070800;28;20044;-68
2022/07/05 09:50:43;;;;;;;5.63;1.13;;;;;;;;;;5072318;28;20041;-66
2022/07/05 09:53:11;;;;;;;3.47;0.80;;;;;;;;;;5082264;28;20441;-74
2022/07/05 09:55:38;;;;;;;5.88;1.10;;;;;;;;;;5086567;28;20033;-79
2022/07/05 09:58:04;;;;;;;2.90;0.80;;;;;;;;;;5078051;28;20066;-77
2022/07/05 10:00:30;;;;;;;3.97;0.82;;;;;;;;;;5085381;28;20359;-77
2022/07/05 10:03:01;;;;;;;3.90;0.90;;;;;;;;;;5096669;28;20058;-74
2022/07/05 10:05:31;;;;;;;5.38;1.02;;;;;;;;;;5097914;28;20493;-75
2022/07/05 10:07:59;;;;;;;2.72;0.90;;;;;;;;;;5085728;28;20560;-73
2022/07/05 10:10:26;;;;;;;7.20;1.30;;;;;;;;;;5085873;28;20059;-70
2022/07/05 10:12:54;;;;;;;3.85;1.13;;;;;;;;;;5084249;28;20045;-70
2022/07/05 10:15:20;;;;;;;;;;;;;;;;;;5071015;28;20053;-69
2022/07/05 10:17:47;;;;;;;1.52;0.60;;;;;;;;;;5116087;28;19963;-67
2022/07/05 10:20:18;;;;;;;2.08;0.50;;;;;;;;;;5084396;28;20067;-67
2022/07/05 10:22:44;;;;;;;5.97;0.90;;;;;;;;;;5074836;28;20047;-70
2022/07/05 10:25:10;;;;;;;4.60;1.30;;;;;;;;;;5101918;28;20045;-69
2022/07/05 10:27:37;;;;;;;8.30;1.58;;;;;;;;;;5077186;28;20040;-66
2022/07/05 10:30:05;;;;;;;2.25;0.60;;;;;;;;;;5077843;28;20053;-66
2022/07/05 10:32:31;;;;;;;2.88;1.05;;;;;;;;;;5092796;28;20041;-69
2022/07/05 10:35:03;;;;;;;3.13;1.05;;;;;;;;;;5095669;28;20127;-67
2022/07/05 10:37:30;;;;;;;3.83;0.90;;;;;;;;;;5079822;28;20048;-67
2022/07/05 10:39:56;;;;;;;;;;;;;;;;;;5084607;28;20048;-64
2022/07/05 10:42:24;;;;;;;2.88;0.75;;;;;;;;;;5081069;28;19920;-65
2022/07/05 10:44:50;;;;;;;;;;;;;;;;;;5097213;28;20044;-69
2022/07/05 10:47:18;;;;;;;2.38;0.80;;;;;;;;;;5078987;28;19942;-72
2022/07/05 10:49:44;;;;;;;5.43;1.27;;;;;;;;;;5084804;28;20473;-77
2022/07/05 10:52:23;;;;;;;4.15;0.80;;;;;;;;;;5078427;28;20079;-69
2022/07/05 10:55:08;;;;;;;5.75;1.10;;;;;;;;;;5085447;28;20045;-66
2022/07/05 10:57:35;;;;;;;3.58;0.77;;;;;;;;;;5074507;28;20124;-67
2022/07/05 11:00:08;;;;;;;8.38;1.38;;;;;;;;;;5086193;28;20041;-69
2022/07/05 11:02:34;;;;;;;3.30;1.02;;;;;;;;;;5078688;28;20121;-69
2022/07/05 11:05:00;;;;;;;2.45;0.85;;;;;;;;;;5100237;28;20084;-70
2022/07/05 11:07:45;;;;;;;6.03;0.95;;;;;;;;;;5084869;28;20044;-69
2022/07/05 11:10:13;;;;;;;4.70;0.80;;;;;;;;;;5084858;28;20209;-69
2022/07/05 11:12:39;;;;;;;3.63;0.85;;;;;;;;;;5083123;28;20036;-69
2022/07/05 11:15:10;;;;;;;4.20;0.70;;;;;;;;;;5071966;28;20047;-70
2022/07/05 11:17:36;;;;;;;2.95;0.70;;;;;;;;;;5077447;28;20041;-68
2022/07/05 11:20:13;;;;;;;4.05;0.82;;;;;;;;;;5084904;28;20053;-67
2022/07/05 11:23:01;;;;;;;2.20;0.60;;;;;;;;;;5077729;28;20045;-67
2022/07/05 11:25:30;;;;;;;2.95;0.70;;;;;;;;;;5081020;28;20052;-67
2022/07/05 11:28:12;;;;;;;6.15;1.23;;;;;;;;;;5085110;28;20043;-68
2022/07/05 11:30:45;;;;;;;2.42;0.55;;;;;;;;;;5079741;28;20301;-66
2022/07/05 11:33:30;;;;;;;3.25;0.90;;;;;;;;;;5083998;28;20186;-68
2022/07/05 11:35:59;;;;;;;3.50;1.00;;;;;;;;;;5094400;28;20044;-70
2022/07/05 11:38:26;;;;;;;4.03;0.73;;;;;;;;;;5086158;28;20055;-68
2022/07/05 11:40:53;;;;;;;8.88;1.42;;;;;;;;;;5078828;28;20040;-72
2022/07/05 11:43:29;;;;;;;4.18;0.77;;;;;;;;;;5078274;28;20056;-71
2022/07/05 11:45:59;;;;;;;5.75;1.77;;;;;;;;;;5086992;28;20044;-71
2022/07/05 11:48:29;;;;;;;5.78;1.70;;;;;;;;;;5084531;28;20203;-72
2022/07/05 11:50:55;;;;;;;3.08;1.08;;;;;;;;;;5085306;28;20104;-71
2022/07/05 11:53:28;;;;;;;4.47;1.02;;;;;;;;;;5082997;28;20063;-71
2022/07/05 11:55:55;;;;;;;5.70;1.55;;;;;;;;;;5083048;28;20044;-66
2022/07/05 11:58:21;;;;;;;9.25;1.05;;;;;;;;;;5085178;28;20048;-69
2022/07/05 12:00:55;;;;;;;4.93;0.90;;;;;;;;;;5077374;28;20056;-69
2022/07/05 12:03:21;;;;;;;5.45;1.20;;;;;;;;;;5072811;28;20048;-72
2022/07/05 12:05:48;;;;;;;6.15;1.10;;;;;;;;;;5107572;28;20067;-71
2022/07/05 12:08:23;;;;;;;25.75;2.63;;;;;;;;;;5077209;28;20040;-71
2022/07/05 12:13:47;;;;;;;5.85;1.20;;;;;;;;;;5076150;28;20455;-66
2022/07/05 12:16:13;;;;;;;5.57;1.40;;;;;;;;;;5079720;28;20079;-66
2022/07/05 12:18:55;;;;;;;3.25;1.00;;;;;;;;;;5074001;28;20101;-66
2022/07/05 12:21:21;;;;;;;8.70;2.22;;;;;;;;;;5079703;28;20044;-66
2022/07/05 12:23:48;;;;;;;5.25;1.20;;;;;;;;;;5085802;28;20668;-67
2022/07/05 12:26:15;;;;;;;5.47;1.10;;;;;;;;;;5095695;28;20039;-66
2022/07/05 12:28:42;;;;;;;10.95;1.25;;;;;;;;;;5071315;28;20045;-66
2022/07/05 12:31:28;;;;;;;4.47;1.10;;;;;;;;;;5097390;28;20037;-65
2022/07/05 12:34:14;;;;;;;5.50;1.33;;;;;;;;;;5114016;28;20114;-66
2022/07/05 12:36:42;;;;;;;4.97;1.10;;;;;;;;;;5089715;28;20171;-65
2022/07/05 12:39:08;;;;;;;3.20;0.82;;;;;;;;;;5082742;28;20048;-66
2022/07/05 12:41:34;;;;;;;2.83;0.90;;;;;;;;;;5083028;28;20067;-66
2022/07/05 12:44:01;;;;;;;3.33;0.73;;;;;;;;;;5082978;28;20044;-66
2022/07/05 12:46:39;;;;;;;6.65;1.00;;;;;;;;;;5082018;28;20062;-67
2022/07/05 12:49:06;;;;;;;5.47;0.98;;;;;;;;;;5081425;28;20044;-67
2022/07/05 12:51:33;;;;;;;4.88;1.00;;;;;;;;;;5081463;28;20059;-65
2022/07/05 12:59:33;;;;;;;3.10;0.77;;;;;;;;;;5076391;28;20066;-65
2022/07/05 13:01:59;;;;;;;7.55;0.93;;;;;;;;;;5080336;28;20532;-66
2022/07/05 13:04:25;;;;;;;2.40;0.88;;;;;;;;;;5080996;28;20047;-66
2022/07/05 13:06:55;;;;;;;1.50;0.90;;;;;;;;;;5087112;28;20063;-66
2022/07/05 13:09:30;;;;;;;4.40;0.80;;;;;;;;;;5076893;28;20048;-66
2022/07/05 13:12:15;;;;;;;3.00;0.82;;;;;;;;;;5074734;28;20041;-66
2022/07/05 13:14:59;;;;;;;4.00;0.77;;;;;;;;;;5093784;28;20063;-65
2022/07/05 13:17:25;;;;;;;2.72;0.75;;;;;;;;;;5083310;28;20053;-65
2022/07/05 13:19:52;;;;;;;3.00;0.82;;;;;;;;;;5083729;28;20573;-65
2022/07/05 13:22:18;;;;;;;0.90;0.60;;;;;;;;;;5081900;28;20072;-66
2022/07/05 13:24:45;;;;;;;1.45;0.70;;;;;;;;;;5085671;28;20127;-65
2022/07/05 13:27:12;;;;;;;6.13;1.33;;;;;;;;;;5086840;28;20120;-65
2022/07/05 13:29:39;;;;;;;3.05;0.68;;;;;;;;;;5086744;28;20037;-66
2022/07/05 13:32:05;;;;;;;4.37;0.90;;;;;;;;;;5098103;28;20048;-65
2022/07/05 13:34:31;;;;;;;5.07;0.85;;;;;;;;;;5102571;28;20393;-65
2022/07/05 13:36:58;;;;;;;2.13;0.80;;;;;;;;;;5078435;28;20097;-66
2022/07/05 13:39:25;;;;;;;6.57;0.90;;;;;;;;;;5102153;28;20117;-65
2022/07/05 13:41:52;;;;;;;2.00;0.60;;;;;;;;;;5089735;28;20051;-65
2022/07/05 13:44:18;;;;;;;2.53;0.82;;;;;;;;;;5087057;28;20128;-66
2022/07/05 13:46:44;;;;;;;3.70;1.02;;;;;;;;;;5097121;28;20093;-66
2022/07/05 13:49:11;;;;;;;9.52;0.95;;;;;;;;;;5087685;28;20040;-66
2022/07/05 13:51:37;;;;;;;2.97;1.15;;;;;;;;;;5094721;28;20043;-65
2022/07/05 13:54:03;;;;;;;7.30;1.08;;;;;;;;;;5086971;28;20060;-65
2022/07/05 13:56:31;;;;;;;8.37;0.97;;;;;;;;;;5091738;28;20041;-67
2022/07/05 13:58:58;;;;;;;1.88;0.68;;;;;;;;;;5087239;28;20118;-67
2022/07/05 14:01:26;;;;;;;7.70;1.15;;;;;;;;;;5087043;28;20056;-66
2022/07/05 14:04:00;;;;;;;4.35;0.98;;;;;;;;;;5089009;28;20070;-66
2022/07/05 14:06:27;;;;;;;3.28;0.80;;;;;;;;;;5092531;28;20514;-66
2022/07/05 14:08:53;;;;;;;2.33;0.80;;;;;;;;;;5096036;28;20115;-65
2022/07/05 14:11:19;;;;;;;6.03;0.90;;;;;;;;;;5086823;28;20108;-66
2022/07/05 14:13:45;;;;;;;1.83;0.82;;;;;;;;;;5090368;28;20066;-66
2022/07/05 14:16:11;;;;;;;2.42;0.70;;;;;;;;;;5089237;28;20100;-66
2022/07/05 14:18:38;;;;;;;4.53;0.95;;;;;;;;;;5080905;28;20036;-66
2022/07/05 14:21:04;;;;;;;6.05;0.80;;;;;;;;;;5086494;28;20108;-66
2022/07/05 14:23:30;;;;;;;2.72;0.75;;;;;;;;;;5087605;28;20060;-66
2022/07/05 14:26:01;;;;;;;2.25;0.85;;;;;;;;;;5086822;28;20047;-65
2022/07/05 14:28:27;;;;;;;3.28;0.60;;;;;;;;;;5086651;28;20046;-66
2022/07/05 14:30:53;;;;;;;2.47;0.70;;;;;;;;;;5102524;28;20055;-65
2022/07/05 14:33:21;;;;;;;1.55;0.60;;;;;;;;;;5084678;28;20131;-66
2022/07/05 14:35:47;;;;;;;3.10;0.90;;;;;;;;;;5092560;28;20477;-65
2022/07/05 14:38:13;;;;;;;1.77;0.60;;;;;;;;;;5082709;28;20044;-65
2022/07/05 14:40:39;;;;;;;3.10;0.70;;;;;;;;;;5084341;28;20044;-65
2022/07/05 14:43:06;;;;;;;2.42;0.88;;;;;;;;;;5092234;28;20104;-65
2022/07/05 14:45:32;;;;;;;4.85;0.80;;;;;;;;;;5086922;28;20056;-65
2022/07/05 14:47:58;;;;;;;1.02;0.43;;;;;;;;;;5082157;28;20411;-65
2022/07/05 14:50:24;;;;;;;3.40;0.60;;;;;;;;;;5084314;28;20059;-65
2022/07/05 14:52:50;;;;;;;2.20;0.77;;;;;;;;;;5086209;28;20051;-65
2022/07/05 14:55:16;;;;;;;3.42;0.98;;;;;;;;;;5088814;28;20040;-65